Terminal Aerodrome Forecast
Issued by NWS

Home | Current Version | Previous Version | Text Only | Print | Product List | Glossary On
Versions: 1 2 3 4 5 6 7 8 9
439
FTUS43 KLSX 241120 AAA
TAFUIN
TAF AMD
KUIN 241120Z 2411/2506 15008KT P6SM FEW250
     FM242000 16013G19KT P6SM FEW200
     FM250000 15009KT P6SM FEW250=

USA.gov is the U.S. government's official web portal to all federal, state and local government web resources and services.